NCAR-RAP Real-Time Weather Data

Output produced by METARs form (08 May 2021  01:08 UTC)
found at http://weather.rap.ucar.edu/surface/
 
KPMD 080053Z 23016KT 10SM CLR 23/07 A2990 RMK AO2 SLP106 T02330067
KPMD 072353Z 24019G26KT 10SM CLR 25/06 A2991 RMK AO2 PK WND 24026/2352 SLP109 T02500056 10278 20250 56009
KPMD 072253Z 23019KT 10SM CLR 26/06 A2992 RMK AO2 PK WND 23026/2224 SLP109 T02560056
KPMD 072153Z 24017KT 10SM CLR 27/03 A2992 RMK AO2 SLP108 T02720028
KPMD 072053Z 23015G25KT 10SM CLR 27/02 A2994 RMK AO2 SLP115 T02720022 58008
KPMD 071953Z 20017G22KT 10SM CLR 28/03 A2995 RMK AO2 SLP118 T02780028
KPMD 071853Z 26014KT 10SM CLR 27/M01 A2997 RMK AO2 SLP124 T02671011
KPMD 071753Z 21010G18KT 10SM CLR 25/02 A2997 RMK AO2 SLP125 T02500022 10261 20139 58005
KPMD 071653Z 25008KT 10SM CLR 24/02 A2998 RMK AO2 SLP127 T02390022
KPMD 071553Z VRB06KT 10SM CLR 22/03 A2998 RMK AO2 SLP131 T02170028
KPMD 071453Z 19006KT 10SM CLR 19/03 A2999 RMK AO2 SLP133 T01940033 53005
KPMD 071353Z 00000KT 10SM CLR 16/05 A2999 RMK AO2 SLP133 T01560050
KPMD 071253Z 18005KT 10SM CLR 14/06 A2997 RMK AO2 SLP127 T01440061